KACV/ACV METAR and TAF weather

Enter ICAO airport designator
Station Type Date Time Source
KACV METAR 2020/06/02 15:53 UTC NOAA

KACV 021553Z AUTO VRB05KT 6SM BR BKN005 12/10 A3010 RMK AO2 SLP199 T01170100


Station Type Date Time Source
KACV Decoded METAR 2020/06/02 15:53 UTC NOAA

ARCATA/EUREKA ARCATA AIRPORT, CA, United States (KACV) 40-59N 124-06W 67M
Jun 02, 2020 - 11:53 AM EDT / 2020.06.02 1553 UTC
Wind: Variable at 6 MPH (5 KT):0
Visibility: 6 mile(s):0
Sky conditions: mostly cloudy
Weather: mist
Temperature: 53.1 F (11.7 C)
Dew Point: 50.0 F (10.0 C)
Relative Humidity: 89%
Pressure (altimeter): 30.1 in. Hg (1019 hPa)
ob: KACV 021553Z AUTO VRB05KT 6SM BR BKN005 12/10 A3010 RMK AO2 SLP199 T01170100
cycle: 16

Station Type Date Time Source
KACV TAF 2020/06/02 16:24 UTC NOAA

TAF
AMD KACV 021622Z 0216/0312 VRB05KT P6SM SKC
TEMPO 0216/0218 6SM BR BKN005
FM021800 26004KT P6SM SKC
FM030500 16003KT P6SM OVC250
FM031100 17002KT P6SM OVC003

Example: see airport list